Date,TemperatureHighF,TemperatureAvgF,TemperatureLowF,DewpointHighF,DewpointAvgF,DewpointLowF,HumidityHigh,HumidityAvg,HumidityLow,PressureMaxIn,PressureMinIn,WindSpeedMaxMPH,WindSpeedAvgMPH,GustSpeedMaxMPH,PrecipitationSumIn
2013-1-1,49.8,47.1,43.4,49.3,43.8,33.5,98,89,63,30.06,29.84,3,0,3,1.11
2013-1-2,49.6,45.2,40.0,49.1,43.0,38.1,98,92,84,30.04,29.80,8,0,8,0.07
2013-1-3,48.3,40.5,33.0,39.2,35.0,27.3,93,81,55,30.21,29.99,8,1,8,0.00
2013-1-4,50.3,37.9,28.4,30.5,24.5,17.4,88,62,28,30.27,30.17,9,1,9,0.00
2013-1-5,47.6,38.1,28.2,38.0,29.0,23.4,91,71,47,30.29,30.17,4,0,5,0.03
2013-1-6,48.2,42.2,37.6,40.9,37.0,33.3,90,82,70,30.18,30.01,11,1,11,0.00
2013-1-7,51.6,41.9,32.3,35.2,32.1,28.5,88,70,46,30.29,30.12,11,2,11,0.00
2013-1-8,50.4,44.3,35.5,42.4,36.4,31.1,88,74,61,30.33,30.23,10,3,10,0.00
2013-1-9,62.2,54.9,49.0,53.3,48.6,40.8,90,80,69,30.33,30.25,6,1,6,0.00
2013-1-10,64.2,58.6,53.0,56.4,53.6,50.1,96,84,71,30.31,30.13,16,3,16,0.02
2013-1-11,65.2,61.1,57.3,63.6,60.3,56.2,98,97,93,30.13,29.98,13,1,13,0.33
2013-1-12,70.7,61.8,56.3,64.4,59.6,55.7,99,93,75,30.04,29.93,5,0,5,0.01
2013-1-13,69.7,62.9,57.5,62.9,59.6,56.0,96,89,76,30.00,29.89,8,1,8,0.01
2013-1-14,64.0,60.0,53.5,63.4,59.2,52.7,98,97,93,29.99,29.89,6,0,8,0.83
2013-1-15,62.4,57.2,52.2,62.1,56.8,51.4,99,99,97,29.98,29.83,7,0,7,0.73
2013-1-16,62.4,55.4,52.3,62.1,54.9,51.8,99,98,97,29.88,29.78,7,1,7,0.44
2013-1-17,55.9,49.6,37.2,55.6,48.7,35.1,99,97,89,30.11,29.54,8,2,12,0.94
2013-1-18,51.9,41.0,31.9,36.0,31.2,24.7,93,71,35,30.39,30.11,6,1,6,0.00
2013-1-19,50.8,40.0,31.5,35.4,31.3,27.0,94,74,40,30.36,30.12,6,0,6,0.00
2013-1-20,60.6,45.3,33.1,41.2,35.4,30.4,95,71,41,30.12,29.97,9,0,9,0.00
2013-1-21,57.9,43.7,33.3,38.0,30.4,18.2,91,63,40,30.03,29.92,11,1,11,0.00
2013-1-22,43.9,35.4,29.2,19.2,15.3,10.9,59,44,29,30.20,30.01,15,2,15,0.00
2013-1-23,48.0,38.1,28.2,35.4,23.8,14.3,83,57,41,30.26,30.06,13,1,13,0.00
2013-1-24,53.2,45.6,35.4,40.8,25.2,7.7,84,50,20,30.29,29.99,17,2,17,0.00
2013-1-25,36.9,30.5,27.8,34.4,20.8,11.1,95,69,43,30.33,30.05,19,4,19,0.00
2013-1-26,54.1,42.5,35.7,39.0,35.4,31.2,97,78,49,30.18,30.03,6,1,6,0.03
2013-1-27,47.0,41.4,35.1,36.1,33.5,30.1,92,74,62,30.39,30.17,12,4,12,0.00
2013-1-28,50.2,45.3,42.3,44.9,38.5,33.0,95,77,68,30.33,30.17,8,2,8,0.00
2013-1-29,67.9,54.5,41.4,60.2,51.2,40.1,96,89,72,30.18,29.86,7,0,7,0.01
2013-1-30,65.2,58.6,42.9,63.4,56.6,38.9,97,93,87,29.86,29.38,25,2,25,1.87
2013-1-31,45.9,40.0,34.2,38.9,27.9,23.5,86,63,42,30.02,29.61,20,2,20,0.00
2013-2-1,40.1,35.6,27.8,30.4,16.3,3.1,74,48,21,30.27,29.96,18,2,18,0.00
2013-2-2,46.8,34.9,24.3,38.2,22.2,6.8,96,63,21,30.26,30.02,9,1,9,0.33
2013-2-3,51.2,41.4,33.2,40.2,33.0,27.7,96,75,43,30.02,29.87,18,2,19,0.00
2013-2-4,48.5,39.4,31.3,35.1,29.4,25.0,82,68,48,30.03,29.91,6,0,6,0.00
2013-2-5,55.5,45.1,34.6,46.9,39.0,29.5,94,79,65,29.92,29.85,8,0,10,0.00
2013-2-6,64.6,48.6,36.2,45.8,38.2,32.3,98,73,33,30.06,29.92,6,0,6,0.00
2013-2-7,49.2,45.8,42.1,45.4,40.2,32.5,94,81,54,30.05,29.83,17,5,18,0.16
2013-2-8,56.0,47.9,39.1,49.5,42.5,32.3,97,82,53,30.03,29.80,11,1,11,0.00
2013-2-9,57.4,43.8,30.6,36.0,30.7,21.5,90,64,26,30.19,30.00,6,0,6,0.00
2013-2-10,55.6,47.1,40.4,46.8,38.9,31.4,96,74,49,30.24,30.00,15,4,15,1.00
2013-2-11,54.8,50.7,46.7,54.1,50.0,45.6,99,97,95,30.01,29.91,10,1,10,0.20
2013-2-12,55.6,48.6,44.0,47.7,42.1,33.9,95,80,48,29.98,29.74,11,1,11,0.21
2013-2-13,50.3,44.1,36.8,47.3,41.5,33.7,98,91,78,29.83,29.62,14,2,14,0.03
2013-2-14,54.1,42.1,31.7,37.9,34.1,29.9,95,75,47,29.96,29.82,7,1,7,0.00
2013-2-15,61.3,45.9,32.4,42.9,35.8,30.3,94,71,38,30.00,29.85,10,1,10,0.00
2013-2-16,44.2,37.2,29.4,35.1,23.6,13.5,82,59,36,30.00,29.81,19,2,19,0.00
2013-2-17,44.1,34.0,24.3,24.2,13.5,8.4,75,44,24,30.18,30.00,15,2,15,0.00
2013-2-18,56.0,41.3,27.0,34.4,25.6,16.5,81,56,32,30.26,30.06,8,1,8,0.00
2013-2-19,52.7,43.5,38.1,45.0,32.7,18.8,95,69,34,30.06,29.85,13,2,13,0.20
2013-2-20,56.1,41.8,31.1,22.0,16.5,1.5,61,39,12,30.05,29.96,11,1,11,0.06
2013-2-21,58.9,45.9,32.1,39.8,24.8,17.0,84,46,24,30.08,29.85,14,3,14,0.06
2013-2-22,44.3,40.5,38.7,40.8,39.0,36.9,97,94,84,30.08,29.94,18,7,18,0.54
2013-2-23,47.6,44.0,40.6,46.4,43.0,39.5,97,96,94,29.97,29.74,10,1,10,0.13
2013-2-24,63.4,49.9,38.9,44.7,39.5,28.6,98,72,29,29.90,29.77,10,1,10,0.05
2013-2-25,49.0,43.8,38.0,38.0,32.8,27.9,94,67,51,29.94,29.78,22,7,22,0.00
2013-2-26,43.7,39.3,35.8,42.5,37.6,34.2,97,94,81,29.79,29.48,25,5,25,0.00
2013-2-27,54.8,46.4,39.7,39.5,36.0,33.0,83,68,48,29.76,29.64,18,2,20,0.00
2013-2-28,47.2,40.7,35.4,37.0,29.7,25.9,71,65,53,29.85,29.69,16,2,16,0.00
2013-3-1,42.7,38.2,33.2,31.4,29.3,25.7,80,70,62,29.86,29.82,11,2,12,0.00
2013-3-2,45.4,37.2,32.5,31.9,28.8,23.6,88,72,52,29.90,29.79,14,2,14,0.00
2013-3-3,41.6,34.0,28.3,23.8,20.3,18.2,71,58,42,29.96,29.86,17,2,18,0.01
2013-3-4,56.6,41.8,27.4,35.8,25.2,19.3,78,54,31,30.07,29.91,8,1,8,0.09
2013-3-5,62.9,48.0,38.5,55.0,41.7,28.5,93,79,66,29.96,29.53,19,2,19,0.01
2013-3-6,38.8,35.4,31.3,30.9,27.1,22.7,89,72,62,30.06,29.72,23,4,23,0.01
2013-3-7,58.5,42.2,29.7,36.1,31.1,26.6,90,67,38,30.15,30.02,9,1,9,0.18
2013-3-8,60.7,45.2,30.7,37.0,31.1,27.4,91,61,32,30.20,30.07,6,1,6,0.13
2013-3-9,60.2,48.5,37.5,39.2,33.1,28.5,80,57,34,30.22,30.09,9,1,9,0.00
2013-3-10,64.8,55.7,46.7,44.1,39.2,35.0,79,55,36,30.12,29.96,12,3,12,0.00
2013-3-11,60.6,54.9,51.7,56.0,50.7,43.9,98,86,64,29.98,29.66,12,2,12,0.27
2013-3-12,62.7,50.7,40.4,53.4,38.8,28.9,97,68,31,29.95,29.66,15,2,15,0.00
2013-3-13,54.2,44.2,35.5,33.4,27.9,20.6,83,55,32,30.11,29.94,12,2,20,0.00
2013-3-14,55.3,41.2,28.7,26.2,20.0,9.8,69,45,18,30.24,30.08,10,2,10,0.04
2013-3-15,71.4,53.6,35.9,45.3,36.6,20.9,85,55,35,30.11,29.84,13,1,13,0.00
2013-3-16,76.0,62.9,51.1,48.7,44.2,39.9,75,52,30,29.84,29.70,15,2,15,0.00
2013-3-17,70.3,60.4,48.5,55.4,49.0,43.3,87,67,51,29.85,29.75,8,1,8,0.00
2013-3-18,56.8,48.0,43.8,52.6,45.4,42.5,97,91,76,29.89,29.67,14,4,14,0.00
2013-3-19,64.3,52.4,43.4,45.5,33.7,20.3,98,57,25,29.95,29.76,14,2,14,0.00
2013-3-20,58.2,47.8,39.2,30.2,21.0,13.9,63,36,19,30.00,29.75,13,1,13,0.00
2013-3-21,48.2,39.9,31.1,29.9,16.7,7.0,64,41,23,29.85,29.74,13,2,13,0.06
2013-3-22,50.0,42.2,34.0,34.3,24.9,14.3,62,50,39,29.94,29.84,7,1,7,0.00
2013-3-23,51.2,46.5,41.4,48.2,42.4,33.3,96,86,60,29.91,29.70,13,2,13,0.02
2013-3-24,48.9,47.0,42.0,46.7,44.9,34.7,96,92,75,29.73,29.40,19,5,19,0.00
2013-3-25,41.9,37.7,32.8,35.1,27.6,24.8,79,67,55,29.92,29.53,21,3,21,0.00
2013-3-26,42.2,36.3,31.1,28.9,26.6,24.5,84,69,51,30.15,29.89,14,2,14,0.02
2013-3-27,55.4,42.1,29.6,27.5,25.1,21.6,82,54,30,30.21,30.09,14,1,14,0.06
2013-3-28,61.3,46.8,32.2,35.0,27.3,19.0,80,50,23,30.20,30.08,16,2,16,0.00
2013-3-29,64.1,50.1,36.2,42.0,33.4,24.7,86,56,29,30.22,30.06,7,1,7,0.00
2013-3-30,68.8,57.3,47.3,54.7,43.7,36.9,95,63,40,30.07,29.87,7,2,7,0.00
2013-3-31,66.0,59.1,54.9,60.0,55.8,53.8,97,89,70,29.89,29.71,9,1,9,0.00
2013-4-1,72.0,61.5,52.9,56.0,47.2,37.7,97,64,30,29.87,29.71,17,1,17,0.00
2013-4-2,67.5,55.7,46.4,42.5,33.3,23.5,73,45,25,30.02,29.87,11,1,11,0.00
2013-4-3,58.4,52.7,46.7,44.6,33.4,27.2,89,49,34,30.07,29.94,13,3,13,0.22
2013-4-4,48.5,43.4,39.4,43.6,39.5,35.9,95,87,67,30.05,29.84,22,7,22,0.11
2013-4-5,65.5,51.6,40.6,49.8,42.1,36.3,96,73,37,29.93,29.81,10,2,10,0.00
2013-4-6,71.2,56.9,41.8,43.8,39.8,35.8,91,57,30,30.07,29.93,9,1,9,0.00
2013-4-7,72.5,60.1,46.9,52.9,45.9,39.3,83,61,41,30.08,29.93,6,1,6,0.00
2013-4-8,77.5,65.2,54.8,58.5,53.5,48.3,88,68,44,30.01,29.90,8,1,8,0.00
2013-4-9,80.8,67.7,54.4,61.8,56.5,52.0,94,70,45,30.04,29.93,6,1,6,0.00
2013-4-10,83.2,69.5,56.0,63.2,58.1,54.1,94,70,43,29.97,29.77,6,0,6,0.00
2013-4-11,78.7,68.9,60.3,67.8,61.3,56.5,96,78,59,29.80,29.50,11,1,11,0.44
2013-4-12,68.8,63.5,55.3,63.0,52.1,39.2,97,70,37,29.75,29.49,11,2,11,0.00
2013-4-13,77.0,63.2,50.3,46.2,38.7,31.2,74,44,20,29.88,29.75,11,1,11,0.00
2013-4-14,62.2,56.5,49.3,54.9,48.4,39.2,94,75,52,29.92,29.79,11,2,11,0.01
2013-4-15,72.6,62.5,55.6,61.0,57.3,54.0,97,84,63,30.01,29.79,8,2,8,0.00
2013-4-16,77.8,67.7,61.0,64.6,61.5,58.5,97,82,62,30.12,30.01,7,1,7,0.00
2013-4-17,83.5,70.9,63.5,66.4,63.2,61.1,94,78,52,30.08,29.91,18,1,18,0.00
2013-4-18,78.5,70.0,62.6,64.2,62.0,60.0,95,77,57,29.94,29.76,7,1,7,0.00
2013-4-19,69.6,59.8,46.9,65.7,56.2,40.5,95,88,78,29.85,29.59,9,1,9,0.60
2013-4-20,64.5,52.1,39.9,41.0,33.6,25.8,81,52,26,30.10,29.85,10,1,10,0.00
2013-4-21,64.3,55.9,45.2,44.7,40.0,34.3,80,57,39,30.22,30.10,18,4,18,0.00
2013-4-22,65.7,57.2,49.3,49.0,43.5,39.7,75,61,47,30.20,30.02,18,4,19,0.00
2013-4-23,71.0,59.2,48.5,53.2,44.8,36.4,83,60,44,30.11,29.93,9,2,9,0.00
2013-4-24,74.5,62.4,53.7,61.5,56.5,50.2,96,82,55,29.98,29.90,7,0,7,0.11
2013-4-25,72.8,59.3,45.4,59.2,41.4,21.6,95,59,16,30.15,29.95,8,0,8,0.00
2013-4-26,70.6,58.6,43.7,51.8,41.6,32.9,87,55,36,30.26,30.12,13,2,13,0.00
2013-4-27,62.4,56.9,54.1,55.7,53.1,46.1,96,87,57,30.22,30.04,13,4,13,0.67
2013-4-28,56.1,54.3,52.6,54.9,53.2,51.6,97,96,94,30.09,29.98,11,4,11,1.15
2013-4-29,69.5,60.2,54.6,60.9,56.4,53.8,98,88,66,29.92,29.78,5,1,7,0.00
2013-4-30,75.5,63.7,52.5,63.0,57.7,51.1,97,82,57,29.96,29.82,6,1,6,0.00
2013-5-1,66.4,63.1,59.8,60.7,57.0,54.7,90,81,68,30.05,29.96,16,5,16,0.00
2013-5-2,60.3,60.3,60.3,55.8,55.8,55.8,85,85,85,29.98,29.98,6,6,13,0.00
2013-5-3,60.3,60.3,60.3,55.8,55.8,55.8,85,85,85,29.98,29.98,6,6,13,0.00
2013-5-4,60.3,58.3,52.2,55.8,54.7,50.9,97,88,85,29.98,29.72,23,6,23,0.93
2013-5-5,58.4,54.4,50.2,56.2,53.1,49.1,97,95,90,29.72,29.62,20,4,20,1.20
2013-5-6,56.5,51.0,46.8,51.5,48.5,45.7,97,91,80,29.76,29.65,5,0,5,0.02
2013-5-7,68.1,58.3,49.8,56.6,52.6,48.7,97,83,60,29.82,29.73,5,1,6,0.05
2013-5-8,74.5,63.3,53.3,62.0,56.1,51.9,96,79,55,29.90,29.80,2,0,8,0.00
2013-5-9,80.1,67.1,54.9,63.8,58.8,53.5,96,77,49,29.95,29.87,5,0,8,0.00
2013-5-10,77.4,67.2,57.4,65.4,60.8,55.4,94,81,59,29.94,29.79,1,0,5,0.00
2013-5-11,74.9,67.2,60.4,65.3,61.8,58.1,95,84,67,29.83,29.70,1,0,5,0.00
2013-5-12,69.0,60.8,51.9,61.0,47.7,36.1,95,66,36,29.94,29.76,2,1,7,0.00
2013-5-13,68.9,57.0,44.1,42.6,37.8,32.5,75,51,29,30.08,29.94,3,1,8,0.00
2013-5-14,76.1,61.3,44.1,57.9,47.9,38.6,84,63,41,30.12,29.95,5,0,5,0.00
2013-5-15,84.7,71.8,59.6,65.6,58.6,55.0,86,66,38,29.98,29.84,7,0,8,0.02
2013-5-16,79.4,69.4,61.3,65.7,62.0,57.6,91,78,58,29.92,29.82,3,0,3,0.00
2013-5-17,79.4,69.6,60.3,65.8,61.2,55.6,94,76,49,29.94,29.86,3,0,3,0.00
2013-5-18,73.4,67.8,64.3,67.0,65.0,63.0,97,91,76,29.94,29.88,5,0,5,0.22
2013-5-19,68.3,66.4,64.0,67.5,65.5,62.9,98,97,93,29.95,29.84,7,1,7,2.64
2013-5-20,82.1,71.5,62.0,72.4,67.1,61.3,99,87,70,29.96,29.84,4,0,4,0.00
2013-5-21,85.4,75.9,67.5,73.3,69.1,66.0,97,81,56,29.88,29.74,8,0,8,0.00
2013-5-22,81.0,72.3,66.1,73.0,67.3,64.0,96,85,68,29.83,29.69,6,0,6,0.00
2013-5-23,80.9,72.7,66.6,68.1,64.0,56.3,98,76,54,29.80,29.72,12,1,12,0.46
2013-5-24,74.3,66.6,59.4,57.7,51.8,43.3,85,61,39,30.05,29.80,10,1,10,0.01
2013-5-25,76.6,63.9,50.0,54.7,47.8,41.7,85,57,37,30.16,30.02,6,0,6,0.00
2013-5-26,77.9,66.5,54.1,58.2,51.4,45.7,80,60,40,30.12,29.99,9,0,10,0.00
2013-5-27,82.0,71.0,59.6,64.4,60.0,55.2,87,70,48,30.09,29.94,5,0,5,0.00
2013-5-28,82.0,73.6,65.9,67.8,63.2,59.4,87,71,48,30.04,29.95,4,0,4,0.00
2013-5-29,79.8,72.1,64.0,67.9,64.2,60.8,91,77,61,30.07,29.97,7,0,7,0.00
2013-5-30,79.2,72.2,66.0,68.7,65.9,63.0,95,81,64,30.10,29.97,7,1,7,0.00
2013-5-31,81.0,73.8,68.5,69.5,66.8,64.9,91,80,61,30.05,29.92,7,1,7,0.00
2013-6-1,80.8,74.5,68.3,71.2,67.8,65.0,92,80,66,29.95,29.82,4,0,4,0.03
2013-6-2,82.8,72.5,67.4,74.0,68.9,66.1,97,89,71,29.84,29.70,12,0,12,0.46
2013-6-3,82.1,72.5,66.5,73.4,68.1,64.8,98,87,63,29.80,29.69,4,0,4,0.02
2013-6-4,83.7,74.4,63.2,71.0,66.2,60.7,93,77,56,29.85,29.77,5,0,5,0.00
2013-6-5,79.6,73.2,66.9,72.7,69.0,65.4,96,87,73,29.88,29.74,11,3,11,0.50
2013-6-6,75.3,69.9,66.0,70.8,67.6,64.2,96,93,83,29.78,29.60,8,1,8,0.00
2013-6-7,82.5,72.2,67.2,72.4,68.2,64.9,97,88,65,29.68,29.51,8,0,8,0.22
2013-6-8,80.3,72.0,63.5,72.2,67.0,62.4,97,85,68,29.91,29.67,4,0,4,0.00
2013-6-9,83.2,73.4,69.2,73.2,69.9,67.1,97,89,68,29.94,29.84,5,0,5,0.64
2013-6-10,75.6,71.2,66.7,71.3,69.1,65.2,98,93,83,29.87,29.77,7,0,7,0.34
2013-6-11,85.5,77.7,71.5,76.9,72.4,70.3,97,85,65,29.86,29.78,7,0,7,0.05
2013-6-12,90.0,80.2,70.7,77.4,73.4,68.8,95,81,59,29.88,29.78,7,0,8,0.00
2013-6-13,88.3,78.5,70.2,76.3,73.0,68.1,97,84,63,29.79,29.56,20,1,20,0.81
2013-6-14,81.6,73.8,64.9,69.9,65.4,60.4,97,77,55,29.84,29.64,5,0,5,0.01
2013-6-15,82.5,74.1,64.2,66.8,63.4,58.6,86,70,51,29.97,29.84,6,0,6,0.00
2013-6-16,70.7,70.6,70.5,66.0,65.9,65.5,85,85,85,29.94,29.94,0,0,0,0.00
2013-7-11,79.0,75.2,72.0,74.6,72.7,70.8,96,92,83,29.80,29.70,0,0,2,0.00
2013-7-12,85.6,75.0,69.9,76.1,71.7,67.6,97,90,71,29.79,29.69,3,1,12,0.00
2013-7-13,76.1,72.1,69.3,71.5,69.1,66.3,95,90,84,29.90,29.78,6,4,13,0.00
2013-7-14,76.9,73.4,71.6,73.6,71.4,69.8,97,94,87,30.06,29.89,5,3,15,1.98
2013-7-15,80.5,75.3,71.3,74.3,71.8,69.8,96,89,78,30.12,30.04,4,3,13,0.00
2013-7-16,85.2,78.0,71.6,74.3,72.0,70.3,96,83,63,30.14,30.05,3,1,7,0.00
2013-7-17,89.2,76.3,68.8,77.9,71.7,66.8,97,87,62,30.11,29.95,12,0,18,2.31
2013-7-18,85.6,76.6,68.2,76.3,71.5,67.3,98,85,65,30.05,29.88,7,0,7,0.02
2013-7-19,87.9,79.1,72.1,77.5,73.7,70.7,96,84,62,29.94,29.80,7,0,7,0.00
2013-7-20,75.8,75.3,74.9,71.6,71.3,71.0,88,88,87,29.86,29.85,1,0,1,0.00
2013-8-17,66.3,65.0,63.4,64.5,62.6,60.4,97,92,84,29.98,29.92,6,4,14,2.05
2013-8-18,71.3,67.8,65.1,69.8,66.7,64.2,98,96,93,30.03,29.93,5,2,10,4.25
2013-8-19,73.0,70.2,67.5,71.0,68.9,66.8,98,96,92,30.00,29.90,5,2,11,5.59
2013-8-20,76.1,72.6,69.7,72.5,70.4,68.5,96,93,86,30.00,29.91,3,1,7,0.00
2013-8-21,78.1,73.2,70.8,73.9,71.2,69.4,97,94,84,30.06,29.93,3,1,8,0.05
2013-8-22,86.3,74.0,69.4,76.5,71.3,68.5,98,92,66,29.98,29.86,5,0,10,0.50
2013-8-23,85.1,75.2,67.2,76.3,70.9,66.6,98,88,61,29.90,29.78,16,0,16,0.00
2013-8-24,78.1,72.8,68.7,70.3,68.1,65.1,96,85,74,30.01,29.72,15,2,15,0.00
2013-8-25,77.7,71.6,65.1,67.5,63.9,60.1,92,77,61,29.71,29.02,10,2,10,0.00
2013-8-26,80.2,71.1,62.2,68.1,64.6,60.4,96,81,61,29.02,27.40,4,0,4,0.00
2013-8-27,83.6,73.5,63.1,72.0,67.1,61.3,96,82,58,28.33,27.95,3,0,3,0.00
2013-8-28,72.0,71.3,71.1,69.5,69.4,69.3,94,94,92,28.08,28.07,0,0,0,0.00
2013-10-6,79.6,70.6,64.4,68.3,65.8,62.9,96,86,62,28.31,28.15,1,0,5,2.56
2013-10-7,74.0,66.6,59.9,67.0,62.8,56.3,98,88,63,28.24,28.10,1,0,5,0.76
2013-10-8,69.8,64.4,59.6,59.2,57.1,53.1,92,78,63,28.43,28.24,10,4,22,0.00
2013-10-9,69.5,62.3,55.6,58.8,53.0,47.6,93,73,54,28.48,28.38,6,2,16,0.00
2013-10-10,75.2,62.7,52.4,60.8,56.1,51.0,96,81,58,28.41,28.29,2,0,6,0.00
2013-10-11,77.0,64.1,54.3,63.4,56.5,52.5,94,78,52,28.33,28.23,1,0,6,0.00
2013-10-12,77.8,65.0,55.0,63.6,58.6,53.3,95,81,60,28.36,28.26,1,0,5,0.00
2013-10-13,75.7,66.7,57.5,66.9,61.5,55.5,94,84,66,28.45,28.35,6,0,6,0.00
2013-10-14,70.8,66.5,62.8,65.0,62.8,61.0,95,88,76,28.48,28.39,11,2,11,0.00
2013-10-15,64.4,63.2,61.0,62.2,59.5,57.9,93,88,81,28.44,28.34,9,2,9,0.00
2013-10-16,69.8,63.6,58.7,63.5,60.1,57.2,96,89,74,28.36,28.26,3,0,4,0.00
2013-10-17,67.5,64.6,60.7,66.6,63.5,59.8,98,97,95,28.27,28.17,2,0,2,0.42
2013-10-18,68.6,60.2,53.9,60.4,56.7,52.5,97,89,61,28.31,28.20,5,0,5,0.00
2013-10-19,61.8,57.6,54.5,57.8,55.3,53.1,96,92,82,28.27,28.20,4,0,4,0.03
2013-10-20,64.7,54.2,44.9,53.1,47.2,37.3,95,80,39,28.38,28.26,3,0,3,0.00
2013-10-21,65.1,55.6,47.1,58.7,52.6,45.4,96,90,75,28.44,28.31,5,0,5,0.00
2013-10-22,67.0,59.6,54.4,58.0,55.6,51.8,97,87,64,28.34,28.14,2,0,2,0.02
2013-10-23,59.4,52.2,43.1,52.1,44.3,35.9,94,76,52,28.38,28.12,14,1,14,0.00
2013-10-24,61.0,48.8,39.4,46.0,40.6,36.0,91,75,48,28.50,28.37,6,0,6,0.00
2013-10-25,55.1,45.5,35.6,42.6,32.8,24.7,86,64,31,28.65,28.49,9,1,9,0.00
2013-10-26,55.3,45.6,35.9,42.1,37.4,32.1,88,74,54,28.65,28.46,7,1,7,0.00
2013-10-27,64.5,54.0,43.4,55.2,47.9,38.5,90,80,67,28.46,28.40,5,0,5,0.00
2013-10-28,62.5,57.2,53.9,58.1,55.1,51.7,97,93,82,28.56,28.43,6,0,6,0.12
2013-10-29,66.8,58.5,50.9,60.1,55.2,49.8,97,89,73,28.62,28.53,6,0,6,0.00
2013-10-30,72.8,62.5,55.7,63.1,58.5,54.4,97,88,67,28.58,28.44,2,0,2,0.00
2013-10-31,71.5,64.7,58.7,64.4,60.1,54.9,96,85,76,28.46,28.16,5,0,5,0.00
2013-11-1,71.5,65.1,55.4,65.3,58.7,49.8,97,81,53,28.16,27.99,8,0,8,0.30
2013-11-2,65.9,55.3,47.7,50.7,46.3,39.7,92,73,47,28.35,28.09,8,0,8,0.00
2013-11-3,60.4,51.0,43.5,47.1,41.6,36.8,91,72,42,28.61,28.34,5,0,5,0.00
2013-11-4,57.4,51.3,46.4,44.6,41.0,37.9,88,69,51,28.75,28.61,16,4,16,0.00
2013-11-5,59.6,50.9,43.7,47.5,39.3,35.5,85,66,42,28.77,28.65,15,5,15,0.00
2013-11-6,67.2,59.5,51.6,58.9,54.0,46.4,91,82,71,28.65,28.41,13,3,13,0.00
2013-11-7,65.3,56.5,44.0,60.1,49.3,36.4,97,78,49,28.48,28.32,9,1,9,0.06
2013-11-8,58.6,47.5,36.9,39.2,33.0,22.3,86,61,26,28.62,28.47,7,0,7,0.00
2013-11-9,56.2,48.3,40.2,42.1,36.9,31.7,83,66,44,28.66,28.52,7,1,7,0.00
2013-11-10,69.8,56.0,45.3,46.9,38.4,30.0,84,55,26,28.56,28.45,6,0,6,0.00
2013-11-11,59.3,50.3,41.4,44.0,38.4,31.7,90,66,39,28.61,28.47,11,1,11,0.00
2013-11-12,62.4,45.9,33.0,45.0,34.4,18.2,87,65,47,28.73,28.42,14,1,14,0.00
2013-11-13,48.1,37.2,26.6,31.1,20.3,11.5,85,53,23,28.86,28.73,3,0,4,0.00
2013-11-14,54.6,40.9,28.0,35.2,26.2,19.8,86,60,27,28.79,28.62,4,0,4,0.00
2013-11-15,50.6,45.5,36.6,49.1,40.1,27.9,95,82,46,28.63,28.47,8,2,8,0.11
2013-11-16,58.2,54.6,50.5,55.8,52.8,49.1,96,94,91,28.54,28.44,7,3,7,0.00
2013-11-17,60.1,58.9,57.6,59.5,57.4,55.4,98,95,90,28.48,28.23,8,2,8,0.38
2013-11-18,71.5,60.2,50.4,61.8,47.6,33.5,98,67,31,28.33,28.18,11,1,11,0.05
2013-11-19,56.1,49.2,40.0,43.6,35.9,31.3,83,61,45,28.49,28.30,11,1,11,0.00
2013-11-20,51.7,47.5,42.5,37.1,34.0,31.3,71,60,50,28.65,28.49,15,7,18,0.00
2013-11-21,50.3,49.1,48.0,49.2,43.8,35.5,97,83,60,28.72,28.63,16,6,17,0.00
2013-11-22,58.0,54.5,49.9,56.2,53.4,49.1,97,96,93,28.67,28.45,7,1,7,0.07
2013-11-23,59.6,53.3,40.7,56.7,46.7,28.8,98,79,51,28.51,28.39,10,1,10,0.00
2013-11-24,45.4,38.8,30.2,29.4,20.7,15.5,66,49,30,28.77,28.50,10,2,10,0.00
2013-11-25,41.7,36.8,31.1,32.1,20.2,13.7,91,52,38,28.80,28.56,16,6,16,0.00
2013-11-26,49.2,42.1,33.7,48.7,41.1,31.3,98,96,90,28.56,27.94,17,4,17,1.47
2013-11-27,45.8,36.2,27.7,45.0,29.9,19.5,97,78,62,28.55,27.94,17,2,17,0.09
2013-11-28,46.0,34.4,23.1,34.8,25.2,19.3,89,71,45,28.78,28.55,5,0,5,0.01
2013-11-29,56.7,42.0,27.3,35.8,29.0,15.4,90,64,24,28.82,28.73,6,1,6,0.00
2013-11-30,47.7,42.4,37.3,33.7,29.3,25.8,71,60,45,28.85,28.65,19,5,19,0.00
2013-12-1,55.8,47.0,41.7,41.5,34.8,27.2,80,63,53,28.65,28.33,7,1,7,0.00
2013-12-2,50.4,47.6,44.1,49.5,44.9,38.3,97,90,78,28.33,28.14,3,0,3,0.11
2013-12-3,52.7,51.2,49.6,52.0,50.5,48.8,98,97,97,28.24,28.16,8,2,8,0.34
2013-12-4,59.7,56.0,52.6,59.0,55.4,51.8,98,98,97,28.34,28.22,6,1,6,0.15
2013-12-5,68.5,63.9,59.7,67.4,63.3,59.0,99,98,94,28.38,28.27,7,0,7,0.48
2013-12-6,73.8,67.7,60.2,67.9,65.3,59.2,98,92,79,28.32,28.22,15,2,15,0.29
2013-12-7,60.1,51.6,45.0,59.2,48.9,43.9,97,91,80,28.53,28.23,15,2,15,0.02
2013-12-8,49.9,43.3,39.4,47.1,42.1,38.5,97,96,88,28.58,28.45,15,7,15,0.18
2013-12-9,49.0,43.5,38.9,48.5,42.9,38.1,98,98,96,28.49,28.29,12,2,12,0.94
2013-12-10,49.7,44.9,32.0,49.2,39.6,26.8,98,83,55,28.58,28.21,20,2,20,0.18
2013-12-11,50.8,38.5,27.7,35.4,28.0,24.1,92,68,41,28.71,28.56,5,0,5,0.00
2013-12-12,48.7,38.6,30.5,25.9,19.7,8.2,74,50,21,28.68,28.58,9,1,9,0.00
2013-12-13,50.0,39.5,28.1,32.3,24.5,16.7,85,57,33,28.64,28.46,8,1,8,0.00
2013-12-14,47.6,45.4,43.1,47.1,41.0,30.4,98,86,57,28.48,28.08,12,3,12,0.82
2013-12-15,48.7,40.4,31.3,48.2,35.7,28.4,98,83,69,28.49,28.07,15,2,15,0.01
2013-12-16,53.2,39.8,29.8,36.0,31.4,27.8,94,75,39,28.56,28.47,11,0,11,0.00
2013-12-17,57.8,46.9,34.7,39.2,35.5,29.2,90,66,46,28.53,28.38,15,1,15,0.00
2013-12-18,53.2,43.1,35.6,29.1,22.3,11.1,62,46,19,28.61,28.45,15,1,15,0.00
2013-12-19,58.9,43.3,30.3,37.5,28.4,21.5,83,59,29,28.65,28.53,5,0,5,0.00
2013-12-20,56.7,46.8,36.8,48.5,40.9,33.1,90,80,62,28.56,28.45,5,0,5,0.00
2013-12-21,61.6,55.8,50.2,61.0,54.3,47.3,98,95,89,28.46,28.26,10,1,10,0.03
2013-12-22,65.8,59.6,56.2,64.4,58.8,55.6,98,97,95,28.36,28.21,10,1,10,3.01
2013-12-23,56.5,50.1,37.1,55.9,47.3,33.6,98,90,78,28.50,28.32,14,1,14,0.02
2013-12-24,41.5,34.7,28.5,33.5,25.8,19.5,91,71,47,28.72,28.50,14,1,14,0.00
2013-12-25,40.6,34.5,28.5,25.1,22.3,18.3,77,62,48,28.81,28.67,13,4,13,0.00
2013-12-26,54.2,40.2,29.0,32.8,26.1,20.9,82,59,31,28.70,28.56,7,1,7,0.00
2013-12-27,49.4,39.3,31.2,33.7,28.7,23.5,90,68,39,28.77,28.63,9,1,9,0.00
2013-12-28,45.6,38.1,31.0,38.7,32.8,27.1,95,82,59,28.72,28.35,17,2,17,0.41
2013-12-29,52.7,45.1,39.9,47.6,42.7,38.6,97,92,81,28.36,28.18,20,2,20,0.28
2013-12-30,49.4,43.9,40.6,44.1,40.5,38.7,95,88,78,28.49,28.32,2,0,7,0.00
2013-12-31,47.9,40.7,35.2,38.4,30.4,21.2,90,70,35,28.65,28.47,3,1,13,0.00
2014-1-1,48.1,40.5,33.8,37.6,32.8,28.7,86,74,57,28.67,28.47,3,1,5,0.00
2014-1-2,46.6,40.4,25.5,45.8,36.6,16.1,97,87,66,28.47,28.07,6,2,20,0.22